sensor_id;sensor_type;location;lat;lon;timestamp;pressure;altitude;pressure_sealevel;temperature;humidity
69306;BME280;56427;51.580;4.656;2023-04-30T00:01:31;102325.69;;;7.13;100.00
69306;BME280;56427;51.580;4.656;2023-04-30T00:03:57;102324.16;;;7.09;100.00
69306;BME280;56427;51.580;4.656;2023-04-30T00:06:22;102325.19;;;7.05;100.00
69306;BME280;56427;51.580;4.656;2023-04-30T00:08:47;102329.41;;;7.07;100.00
69306;BME280;56427;51.580;4.656;2023-04-30T00:11:13;102331.88;;;7.09;100.00
69306;BME280;56427;51.580;4.656;2023-04-30T00:13:38;102335.75;;;7.19;100.00
69306;BME280;56427;51.580;4.656;2023-04-30T00:16:04;102331.63;;;7.15;100.00
69306;BME280;56427;51.580;4.656;2023-04-30T00:18:29;102330.41;;;7.24;100.00
69306;BME280;56427;51.580;4.656;2023-04-30T00:20:54;102332.41;;;7.36;100.00
69306;BME280;56427;51.580;4.656;2023-04-30T00:23:20;102331.66;;;7.34;100.00
69306;BME280;56427;51.580;4.656;2023-04-30T00:25:45;102329.53;;;7.23;100.00
69306;BME280;56427;51.580;4.656;2023-04-30T00:28:11;102329.03;;;7.15;100.00
69306;BME280;56427;51.580;4.656;2023-04-30T00:30:36;102329.34;;;7.28;100.00
69306;BME280;56427;51.580;4.656;2023-04-30T00:33:01;102337.97;;;7.27;100.00
69306;BME280;56427;51.580;4.656;2023-04-30T00:35:27;102328.16;;;7.16;100.00
69306;BME280;56427;51.580;4.656;2023-04-30T00:37:52;102316.81;;;7.18;100.00
69306;BME280;56427;51.580;4.656;2023-04-30T00:40:19;102322.91;;;7.17;100.00
69306;BME280;56427;51.580;4.656;2023-04-30T00:42:44;102327.38;;;7.14;100.00
69306;BME280;56427;51.580;4.656;2023-04-30T00:45:10;102325.91;;;7.08;100.00
69306;BME280;56427;51.580;4.656;2023-04-30T00:47:35;102330.44;;;7.03;100.00
69306;BME280;56427;51.580;4.656;2023-04-30T00:50:01;102326.41;;;6.97;100.00
69306;BME280;56427;51.580;4.656;2023-04-30T00:52:26;102331.00;;;6.91;100.00
69306;BME280;56427;51.580;4.656;2023-04-30T00:54:52;102322.94;;;6.78;100.00
69306;BME280;56427;51.580;4.656;2023-04-30T00:57:19;102329.97;;;6.74;100.00
69306;BME280;56427;51.580;4.656;2023-04-30T00:59:45;102334.97;;;6.77;100.00
69306;BME280;56427;51.580;4.656;2023-04-30T01:02:12;102345.47;;;6.93;100.00
69306;BME280;56427;51.580;4.656;2023-04-30T01:04:37;102334.22;;;6.75;100.00
69306;BME280;56427;51.580;4.656;2023-04-30T01:07:03;102328.41;;;7.10;100.00
69306;BME280;56427;51.580;4.656;2023-04-30T01:09:30;102328.41;;;6.91;100.00
69306;BME280;56427;51.580;4.656;2023-04-30T01:14:32;102319.50;;;6.77;100.00
69306;BME280;56427;51.580;4.656;2023-04-30T01:17:08;102327.63;;;6.89;100.00
69306;BME280;56427;51.580;4.656;2023-04-30T01:19:41;102331.94;;;6.68;100.00
69306;BME280;56427;51.580;4.656;2023-04-30T01:22:11;102330.09;;;6.71;100.00
69306;BME280;56427;51.580;4.656;2023-04-30T01:30:02;102341.56;;;6.64;100.00
69306;BME280;56427;51.580;4.656;2023-04-30T01:32:28;102338.22;;;6.62;100.00
69306;BME280;56427;51.580;4.656;2023-04-30T01:34:54;102332.22;;;6.61;100.00
69306;BME280;56427;51.580;4.656;2023-04-30T01:51:29;102335.44;;;6.67;100.00
69306;BME280;56427;51.580;4.656;2023-04-30T01:54:05;102342.16;;;6.71;100.00
69306;BME280;56427;51.580;4.656;2023-04-30T01:56:40;102329.47;;;6.66;100.00
69306;BME280;56427;51.580;4.656;2023-04-30T01:59:08;102328.53;;;6.67;100.00
69306;BME280;56427;51.580;4.656;2023-04-30T02:01:35;102335.44;;;6.67;100.00
69306;BME280;56427;51.580;4.656;2023-04-30T02:04:01;102333.94;;;6.61;100.00
69306;BME280;56427;51.580;4.656;2023-04-30T02:06:27;102339.28;;;6.58;100.00
69306;BME280;56427;51.580;4.656;2023-04-30T02:08:54;102341.06;;;6.56;100.00
69306;BME280;56427;51.580;4.656;2023-04-30T02:11:21;102331.03;;;6.50;100.00
69306;BME280;56427;51.580;4.656;2023-04-30T02:13:49;102333.66;;;6.48;100.00
69306;BME280;56427;51.580;4.656;2023-04-30T02:16:14;102334.16;;;6.36;100.00
69306;BME280;56427;51.580;4.656;2023-04-30T02:18:39;102334.16;;;6.36;100.00
69306;BME280;56427;51.580;4.656;2023-04-30T02:21:05;102343.25;;;6.44;100.00
69306;BME280;56427;51.580;4.656;2023-04-30T02:23:30;102342.94;;;6.32;100.00
69306;BME280;56427;51.580;4.656;2023-04-30T02:25:55;102332.63;;;6.32;100.00
69306;BME280;56427;51.580;4.656;2023-04-30T02:28:21;102335.63;;;6.21;100.00
69306;BME280;56427;51.580;4.656;2023-04-30T02:30:46;102333.09;;;6.19;100.00
69306;BME280;56427;51.580;4.656;2023-04-30T02:33:12;102330.59;;;6.18;100.00
69306;BME280;56427;51.580;4.656;2023-04-30T02:35:39;102331.34;;;5.99;100.00
69306;BME280;56427;51.580;4.656;2023-04-30T02:38:05;102337.97;;;5.83;100.00
69306;BME280;56427;51.580;4.656;2023-04-30T02:40:30;102337.97;;;5.83;100.00
69306;BME280;56427;51.580;4.656;2023-04-30T02:42:56;102336.22;;;5.83;100.00
69306;BME280;56427;51.580;4.656;2023-04-30T02:45:21;102342.94;;;5.87;100.00
69306;BME280;56427;51.580;4.656;2023-04-30T02:47:47;102338.44;;;5.93;100.00
69306;BME280;56427;51.580;4.656;2023-04-30T02:50:13;102334.22;;;5.90;100.00
69306;BME280;56427;51.580;4.656;2023-04-30T02:52:38;102343.59;;;5.93;100.00
69306;BME280;56427;51.580;4.656;2023-04-30T02:55:04;102337.84;;;6.51;100.00
69306;BME280;56427;51.580;4.656;2023-04-30T02:57:30;102339.38;;;6.34;100.00
69306;BME280;56427;51.580;4.656;2023-04-30T02:59:55;102344.47;;;6.36;100.00
69306;BME280;56427;51.580;4.656;2023-04-30T03:02:21;102347.63;;;6.42;100.00
69306;BME280;56427;51.580;4.656;2023-04-30T03:04:48;102346.50;;;6.50;100.00
69306;BME280;56427;51.580;4.656;2023-04-30T03:07:13;102347.66;;;6.63;100.00
69306;BME280;56427;51.580;4.656;2023-04-30T03:09:39;102341.97;;;6.55;100.00
69306;BME280;56427;51.580;4.656;2023-04-30T03:12:04;102338.94;;;6.45;100.00
69306;BME280;56427;51.580;4.656;2023-04-30T03:14:30;102347.94;;;6.35;100.00
69306;BME280;56427;51.580;4.656;2023-04-30T03:16:55;102345.28;;;6.36;100.00
69306;BME280;56427;51.580;4.656;2023-04-30T03:19:20;102341.13;;;6.12;100.00
69306;BME280;56427;51.580;4.656;2023-04-30T03:21:52;102340.38;;;5.87;100.00
69306;BME280;56427;51.580;4.656;2023-04-30T03:24:18;102340.38;;;5.87;100.00
69306;BME280;56427;51.580;4.656;2023-04-30T03:26:44;102339.72;;;5.82;100.00
69306;BME280;56427;51.580;4.656;2023-04-30T03:29:09;102342.41;;;5.79;100.00
69306;BME280;56427;51.580;4.656;2023-04-30T03:31:35;102340.72;;;5.78;100.00
69306;BME280;56427;51.580;4.656;2023-04-30T03:34:00;102341.06;;;5.91;100.00
69306;BME280;56427;51.580;4.656;2023-04-30T03:36:25;102330.41;;;5.78;100.00
69306;BME280;56427;51.580;4.656;2023-04-30T03:38:51;102336.59;;;5.96;100.00
69306;BME280;56427;51.580;4.656;2023-04-30T03:41:17;102333.47;;;5.88;100.00
69306;BME280;56427;51.580;4.656;2023-04-30T03:43:42;102334.91;;;5.73;100.00
69306;BME280;56427;51.580;4.656;2023-04-30T03:46:07;102330.75;;;5.69;100.00
69306;BME280;56427;51.580;4.656;2023-04-30T03:48:33;102327.53;;;5.86;100.00
69306;BME280;56427;51.580;4.656;2023-04-30T03:50:58;102332.78;;;5.61;100.00
69306;BME280;56427;51.580;4.656;2023-04-30T03:53:23;102335.00;;;5.48;100.00
69306;BME280;56427;51.580;4.656;2023-04-30T03:55:51;102340.25;;;5.45;100.00
69306;BME280;56427;51.580;4.656;2023-04-30T03:58:17;102333.47;;;5.42;100.00
69306;BME280;56427;51.580;4.656;2023-04-30T04:00:42;102326.66;;;5.41;100.00
69306;BME280;56427;51.580;4.656;2023-04-30T04:03:10;102333.69;;;5.36;100.00
69306;BME280;56427;51.580;4.656;2023-04-30T04:05:35;102329.25;;;5.63;100.00
69306;BME280;56427;51.580;4.656;2023-04-30T04:08:01;102337.25;;;5.56;100.00
69306;BME280;56427;51.580;4.656;2023-04-30T04:10:26;102344.94;;;5.57;100.00
69306;BME280;56427;51.580;4.656;2023-04-30T04:12:52;102347.06;;;5.46;100.00
69306;BME280;56427;51.580;4.656;2023-04-30T04:15:17;102343.63;;;5.47;100.00
69306;BME280;56427;51.580;4.656;2023-04-30T04:17:42;102348.00;;;5.45;100.00
69306;BME280;56427;51.580;4.656;2023-04-30T04:20:08;102355.28;;;5.56;100.00
69306;BME280;56427;51.580;4.656;2023-04-30T04:22:33;102353.97;;;5.45;100.00
69306;BME280;56427;51.580;4.656;2023-04-30T04:24:59;102360.16;;;5.63;100.00
69306;BME280;56427;51.580;4.656;2023-04-30T04:27:25;102357.22;;;5.96;100.00
69306;BME280;56427;51.580;4.656;2023-04-30T04:29:51;102350.91;;;6.03;100.00
69306;BME280;56427;51.580;4.656;2023-04-30T04:32:17;102350.19;;;6.00;100.00
69306;BME280;56427;51.580;4.656;2023-04-30T04:34:42;102351.78;;;5.80;100.00
69306;BME280;56427;51.580;4.656;2023-04-30T04:37:07;102355.31;;;6.44;100.00
69306;BME280;56427;51.580;4.656;2023-04-30T04:39:33;102358.59;;;6.89;100.00
69306;BME280;56427;51.580;4.656;2023-04-30T04:42:00;102353.63;;;7.43;100.00
69306;BME280;56427;51.580;4.656;2023-04-30T04:44:26;102360.72;;;7.95;100.00
69306;BME280;56427;51.580;4.656;2023-04-30T04:46:52;102359.13;;;8.27;100.00
69306;BME280;56427;51.580;4.656;2023-04-30T04:49:18;102363.66;;;8.58;100.00
69306;BME280;56427;51.580;4.656;2023-04-30T04:51:43;102358.13;;;8.99;100.00
69306;BME280;56427;51.580;4.656;2023-04-30T04:54:09;102347.28;;;9.09;100.00
69306;BME280;56427;51.580;4.656;2023-04-30T04:56:34;102345.28;;;9.14;100.00
69306;BME280;56427;51.580;4.656;2023-04-30T04:58:59;102343.81;;;9.57;100.00
69306;BME280;56427;51.580;4.656;2023-04-30T05:01:25;102344.47;;;9.45;100.00
69306;BME280;56427;51.580;4.656;2023-04-30T05:03:51;102339.22;;;9.79;100.00
69306;BME280;56427;51.580;4.656;2023-04-30T05:06:17;102329.94;;;10.51;100.00
69306;BME280;56427;51.580;4.656;2023-04-30T05:08:43;102333.84;;;10.73;100.00
69306;BME280;56427;51.580;4.656;2023-04-30T05:11:08;102334.97;;;10.97;100.00
69306;BME280;56427;51.580;4.656;2023-04-30T05:13:34;102323.53;;;11.14;100.00
69306;BME280;56427;51.580;4.656;2023-04-30T05:16:00;102328.88;;;11.40;100.00
69306;BME280;56427;51.580;4.656;2023-04-30T05:18:25;102326.59;;;11.75;100.00
69306;BME280;56427;51.580;4.656;2023-04-30T05:20:50;102322.72;;;12.74;100.00
69306;BME280;56427;51.580;4.656;2023-04-30T05:23:16;102328.16;;;11.09;100.00
69306;BME280;56427;51.580;4.656;2023-04-30T05:25:41;102322.41;;;12.66;100.00
69306;BME280;56427;51.580;4.656;2023-04-30T05:28:07;102318.19;;;12.12;100.00
69306;BME280;56427;51.580;4.656;2023-04-30T05:30:32;102325.50;;;13.10;100.00
69306;BME280;56427;51.580;4.656;2023-04-30T05:32:57;102327.50;;;13.30;100.00
69306;BME280;56427;51.580;4.656;2023-04-30T05:35:23;102333.59;;;13.18;100.00
69306;BME280;56427;51.580;4.656;2023-04-30T05:37:49;102341.88;;;13.73;100.00
69306;BME280;56427;51.580;4.656;2023-04-30T05:40:14;102339.72;;;13.42;100.00
69306;BME280;56427;51.580;4.656;2023-04-30T05:42:40;102345.63;;;13.57;100.00
69306;BME280;56427;51.580;4.656;2023-04-30T05:45:08;102346.03;;;13.01;100.00
69306;BME280;56427;51.580;4.656;2023-04-30T05:47:34;102345.28;;;13.12;100.00
69306;BME280;56427;51.580;4.656;2023-04-30T05:49:59;102341.78;;;12.87;100.00
69306;BME280;56427;51.580;4.656;2023-04-30T05:52:24;102339.25;;;12.22;100.00
69306;BME280;56427;51.580;4.656;2023-04-30T05:54:50;102332.22;;;12.88;100.00
69306;BME280;56427;51.580;4.656;2023-04-30T05:57:16;102343.44;;;12.37;100.00
69306;BME280;56427;51.580;4.656;2023-04-30T05:59:41;102331.06;;;13.42;100.00
69306;BME280;56427;51.580;4.656;2023-04-30T06:02:06;102344.88;;;13.18;100.00
69306;BME280;56427;51.580;4.656;2023-04-30T06:04:32;102340.38;;;13.20;100.00
69306;BME280;56427;51.580;4.656;2023-04-30T06:06:57;102346.75;;;13.16;100.00
69306;BME280;56427;51.580;4.656;2023-04-30T06:09:23;102337.88;;;13.19;100.00
69306;BME280;56427;51.580;4.656;2023-04-30T06:11:48;102336.84;;;13.34;100.00
69306;BME280;56427;51.580;4.656;2023-04-30T06:14:16;102343.44;;;12.88;100.00
69306;BME280;56427;51.580;4.656;2023-04-30T06:16:43;102341.34;;;13.32;100.00
69306;BME280;56427;51.580;4.656;2023-04-30T06:19:09;102341.94;;;13.23;100.00
69306;BME280;56427;51.580;4.656;2023-04-30T06:21:34;102336.44;;;13.15;100.00
69306;BME280;56427;51.580;4.656;2023-04-30T06:23:59;102344.53;;;13.23;100.00
69306;BME280;56427;51.580;4.656;2023-04-30T06:26:26;102337.81;;;13.82;100.00
69306;BME280;56427;51.580;4.656;2023-04-30T06:28:51;102343.34;;;13.53;100.00
69306;BME280;56427;51.580;4.656;2023-04-30T06:31:19;102330.22;;;13.29;100.00
69306;BME280;56427;51.580;4.656;2023-04-30T06:33:45;102334.91;;;12.86;100.00
69306;BME280;56427;51.580;4.656;2023-04-30T06:36:10;102337.94;;;13.30;100.00
69306;BME280;56427;51.580;4.656;2023-04-30T06:38:36;102333.94;;;13.50;100.00
69306;BME280;56427;51.580;4.656;2023-04-30T06:41:01;102332.25;;;13.97;100.00
69306;BME280;56427;51.580;4.656;2023-04-30T06:43:26;102338.56;;;13.71;100.00
69306;BME280;56427;51.580;4.656;2023-04-30T06:45:52;102335.94;;;13.95;100.00
69306;BME280;56427;51.580;4.656;2023-04-30T06:48:17;102333.34;;;14.53;100.00
69306;BME280;56427;51.580;4.656;2023-04-30T06:50:42;102333.50;;;14.16;100.00
69306;BME280;56427;51.580;4.656;2023-04-30T06:53:12;102348.06;;;14.43;100.00
69306;BME280;56427;51.580;4.656;2023-04-30T06:55:39;102350.13;;;14.15;100.00
69306;BME280;56427;51.580;4.656;2023-04-30T06:58:05;102350.34;;;14.59;100.00
69306;BME280;56427;51.580;4.656;2023-04-30T07:00:30;102352.53;;;14.87;100.00
69306;BME280;56427;51.580;4.656;2023-04-30T07:02:56;102353.47;;;15.64;100.00
69306;BME280;56427;51.580;4.656;2023-04-30T07:05:25;102343.97;;;14.74;100.00
69306;BME280;56427;51.580;4.656;2023-04-30T07:07:50;102347.06;;;14.32;100.00
69306;BME280;56427;51.580;4.656;2023-04-30T07:10:15;102343.56;;;14.56;100.00
69306;BME280;56427;51.580;4.656;2023-04-30T07:12:41;102341.59;;;14.60;100.00
69306;BME280;56427;51.580;4.656;2023-04-30T07:15:07;102337.28;;;15.38;100.00
69306;BME280;56427;51.580;4.656;2023-04-30T07:17:32;102332.28;;;15.78;100.00
69306;BME280;56427;51.580;4.656;2023-04-30T07:19:57;102330.53;;;16.00;100.00
69306;BME280;56427;51.580;4.656;2023-04-30T07:22:23;102334.06;;;15.23;100.00
69306;BME280;56427;51.580;4.656;2023-04-30T07:24:48;102333.53;;;16.37;100.00
69306;BME280;56427;51.580;4.656;2023-04-30T07:27:13;102335.00;;;16.30;100.00
69306;BME280;56427;51.580;4.656;2023-04-30T07:29:39;102335.69;;;16.53;100.00
69306;BME280;56427;51.580;4.656;2023-04-30T07:32:04;102330.22;;;16.35;98.72
69306;BME280;56427;51.580;4.656;2023-04-30T07:34:30;102321.72;;;16.43;98.59
69306;BME280;56427;51.580;4.656;2023-04-30T07:36:55;102335.41;;;16.78;97.20
69306;BME280;56427;51.580;4.656;2023-04-30T07:39:20;102330.19;;;16.87;96.81
69306;BME280;56427;51.580;4.656;2023-04-30T07:41:46;102329.38;;;16.66;98.34
69306;BME280;56427;51.580;4.656;2023-04-30T07:44:11;102325.47;;;16.81;94.00
69306;BME280;56427;51.580;4.656;2023-04-30T07:46:37;102326.53;;;16.48;96.94
69306;BME280;56427;51.580;4.656;2023-04-30T07:49:02;102320.69;;;16.13;96.04
69306;BME280;56427;51.580;4.656;2023-04-30T07:51:28;102323.94;;;17.09;95.04
69306;BME280;56427;51.580;4.656;2023-04-30T07:53:54;102332.16;;;17.65;90.67
69306;BME280;56427;51.580;4.656;2023-04-30T07:56:22;102326.91;;;16.95;91.43
69306;BME280;56427;51.580;4.656;2023-04-30T07:58:48;102333.69;;;16.67;96.18
69306;BME280;56427;51.580;4.656;2023-04-30T08:01:14;102333.34;;;16.81;91.89
69306;BME280;56427;51.580;4.656;2023-04-30T08:03:39;102326.41;;;16.80;95.56
69306;BME280;56427;51.580;4.656;2023-04-30T08:06:05;102327.25;;;17.11;93.84
69306;BME280;56427;51.580;4.656;2023-04-30T08:08:31;102324.72;;;17.00;92.17
69306;BME280;56427;51.580;4.656;2023-04-30T08:10:56;102328.22;;;17.30;90.33
69306;BME280;56427;51.580;4.656;2023-04-30T08:13:21;102328.97;;;18.00;89.21
69306;BME280;56427;51.580;4.656;2023-04-30T08:15:47;102330.31;;;17.36;92.01
69306;BME280;56427;51.580;4.656;2023-04-30T08:18:12;102336.47;;;17.06;89.07
69306;BME280;56427;51.580;4.656;2023-04-30T08:20:38;102335.47;;;17.87;87.01
69306;BME280;56427;51.580;4.656;2023-04-30T08:23:03;102333.66;;;17.58;90.59
69306;BME280;56427;51.580;4.656;2023-04-30T08:25:29;102334.47;;;18.74;83.12
69306;BME280;56427;51.580;4.656;2023-04-30T08:27:55;102335.53;;;18.91;78.71
69306;BME280;56427;51.580;4.656;2023-04-30T08:30:21;102333.19;;;18.78;80.80
69306;BME280;56427;51.580;4.656;2023-04-30T08:32:47;102328.69;;;19.44;75.11
69306;BME280;56427;51.580;4.656;2023-04-30T08:35:13;102330.09;;;18.17;77.17
69306;BME280;56427;51.580;4.656;2023-04-30T08:37:41;102333.38;;;18.19;78.88
69306;BME280;56427;51.580;4.656;2023-04-30T08:40:07;102333.91;;;18.33;81.34
69306;BME280;56427;51.580;4.656;2023-04-30T08:42:35;102325.88;;;18.34;81.63
69306;BME280;56427;51.580;4.656;2023-04-30T08:45:02;102318.78;;;18.82;75.06
69306;BME280;56427;51.580;4.656;2023-04-30T08:47:27;102328.81;;;17.63;81.52
69306;BME280;56427;51.580;4.656;2023-04-30T08:49:53;102311.16;;;18.51;75.17
69306;BME280;56427;51.580;4.656;2023-04-30T08:52:19;102317.31;;;18.70;74.41
69306;BME280;56427;51.580;4.656;2023-04-30T08:54:46;102319.09;;;19.07;73.01
69306;BME280;56427;51.580;4.656;2023-04-30T08:57:12;102314.31;;;18.17;77.56
69306;BME280;56427;51.580;4.656;2023-04-30T08:59:38;102325.03;;;17.17;79.12
69306;BME280;56427;51.580;4.656;2023-04-30T09:02:04;102313.66;;;16.35;88.26
69306;BME280;56427;51.580;4.656;2023-04-30T09:04:29;102311.13;;;17.26;86.12
69306;BME280;56427;51.580;4.656;2023-04-30T09:06:55;102313.44;;;18.74;77.52
69306;BME280;56427;51.580;4.656;2023-04-30T09:09:28;102316.38;;;18.14;72.17
69306;BME280;56427;51.580;4.656;2023-04-30T09:12:14;102321.00;;;17.03;78.53
69306;BME280;56427;51.580;4.656;2023-04-30T09:14:56;102309.22;;;17.87;76.83
69306;BME280;56427;51.580;4.656;2023-04-30T09:17:22;102310.22;;;18.90;72.49
69306;BME280;56427;51.580;4.656;2023-04-30T09:19:49;102314.56;;;18.99;72.94
69306;BME280;56427;51.580;4.656;2023-04-30T09:22:22;102300.31;;;18.27;70.08
69306;BME280;56427;51.580;4.656;2023-04-30T09:24:49;102317.63;;;17.41;73.30
69306;BME280;56427;51.580;4.656;2023-04-30T09:27:19;102312.53;;;17.69;68.27
69306;BME280;56427;51.580;4.656;2023-04-30T09:29:45;102297.88;;;17.96;69.51
69306;BME280;56427;51.580;4.656;2023-04-30T09:32:11;102310.31;;;17.64;70.83
69306;BME280;56427;51.580;4.656;2023-04-30T09:34:36;102298.59;;;17.88;75.31
69306;BME280;56427;51.580;4.656;2023-04-30T09:37:02;102311.34;;;18.30;75.09
69306;BME280;56427;51.580;4.656;2023-04-30T09:39:28;102302.25;;;19.00;72.68
69306;BME280;56427;51.580;4.656;2023-04-30T09:42:07;102308.88;;;19.04;75.12
69306;BME280;56427;51.580;4.656;2023-04-30T09:44:36;102303.56;;;19.67;66.75
69306;BME280;56427;51.580;4.656;2023-04-30T09:47:02;102296.94;;;19.27;67.56
69306;BME280;56427;51.580;4.656;2023-04-30T09:49:28;102297.78;;;19.64;66.67
69306;BME280;56427;51.580;4.656;2023-04-30T09:51:55;102302.09;;;18.73;66.33
69306;BME280;56427;51.580;4.656;2023-04-30T09:54:27;102292.59;;;18.15;69.96
69306;BME280;56427;51.580;4.656;2023-04-30T09:56:53;102292.78;;;17.84;72.76
69306;BME280;56427;51.580;4.656;2023-04-30T09:59:21;102303.69;;;17.60;70.30
69306;BME280;56427;51.580;4.656;2023-04-30T10:01:49;102299.66;;;17.76;70.98
69306;BME280;56427;51.580;4.656;2023-04-30T10:04:17;102295.94;;;18.17;71.77
69306;BME280;56427;51.580;4.656;2023-04-30T10:06:43;102292.34;;;17.89;69.90
69306;BME280;56427;51.580;4.656;2023-04-30T10:09:09;102302.13;;;18.26;70.37
69306;BME280;56427;51.580;4.656;2023-04-30T10:11:36;102280.09;;;18.27;75.02
69306;BME280;56427;51.580;4.656;2023-04-30T10:14:07;102286.78;;;18.59;72.60
69306;BME280;56427;51.580;4.656;2023-04-30T10:16:36;102288.75;;;17.80;65.87
69306;BME280;56427;51.580;4.656;2023-04-30T10:19:14;102284.34;;;17.42;71.74
69306;BME280;56427;51.580;4.656;2023-04-30T10:21:44;102281.72;;;17.91;74.72
69306;BME280;56427;51.580;4.656;2023-04-30T10:24:12;102278.28;;;18.37;76.41
69306;BME280;56427;51.580;4.656;2023-04-30T10:26:39;102281.72;;;18.85;74.71
69306;BME280;56427;51.580;4.656;2023-04-30T10:29:05;102279.63;;;18.79;72.68
69306;BME280;56427;51.580;4.656;2023-04-30T10:31:31;102275.34;;;19.60;75.50
69306;BME280;56427;51.580;4.656;2023-04-30T10:36:38;102273.81;;;17.71;78.72
69306;BME280;56427;51.580;4.656;2023-04-30T10:39:05;102263.50;;;18.64;78.55
69306;BME280;56427;51.580;4.656;2023-04-30T10:41:31;102259.78;;;18.29;76.12
69306;BME280;56427;51.580;4.656;2023-04-30T10:43:57;102260.66;;;18.10;80.35
69306;BME280;56427;51.580;4.656;2023-04-30T10:46:25;102260.38;;;18.88;75.45
69306;BME280;56427;51.580;4.656;2023-04-30T10:48:52;102263.50;;;17.50;82.00
69306;BME280;56427;51.580;4.656;2023-04-30T10:51:19;102258.50;;;17.27;87.39
69306;BME280;56427;51.580;4.656;2023-04-30T10:53:48;102247.31;;;16.65;87.30
69306;BME280;56427;51.580;4.656;2023-04-30T10:56:28;102253.22;;;16.98;85.94
69306;BME280;56427;51.580;4.656;2023-04-30T10:58:58;102236.13;;;17.62;83.69
69306;BME280;56427;51.580;4.656;2023-04-30T11:01:25;102237.66;;;17.55;85.50
69306;BME280;56427;51.580;4.656;2023-04-30T11:04:07;102235.84;;;17.65;84.65
69306;BME280;56427;51.580;4.656;2023-04-30T11:09:14;102232.66;;;16.53;88.94
69306;BME280;56427;51.580;4.656;2023-04-30T11:11:39;102227.91;;;16.78;90.60
69306;BME280;56427;51.580;4.656;2023-04-30T11:14:05;102228.81;;;17.46;84.60
69306;BME280;56427;51.580;4.656;2023-04-30T11:16:33;102219.63;;;18.09;83.50
69306;BME280;56427;51.580;4.656;2023-04-30T11:19:09;102219.44;;;18.11;82.29
69306;BME280;56427;51.580;4.656;2023-04-30T11:27:24;102209.09;;;18.92;77.68
69306;BME280;56427;51.580;4.656;2023-04-30T11:29:51;102199.81;;;18.98;79.15
69306;BME280;56427;51.580;4.656;2023-04-30T11:32:21;102191.59;;;17.80;83.84
69306;BME280;56427;51.580;4.656;2023-04-30T11:34:47;102196.38;;;18.14;82.32
69306;BME280;56427;51.580;4.656;2023-04-30T11:37:19;102194.09;;;18.57;77.15
69306;BME280;56427;51.580;4.656;2023-04-30T11:39:46;102190.69;;;17.52;83.03
69306;BME280;56427;51.580;4.656;2023-04-30T11:42:18;102190.00;;;17.50;88.90
69306;BME280;56427;51.580;4.656;2023-04-30T11:44:44;102186.69;;;17.28;88.39
69306;BME280;56427;51.580;4.656;2023-04-30T11:47:11;102189.56;;;18.21;85.55
69306;BME280;56427;51.580;4.656;2023-04-30T11:49:37;102178.41;;;18.37;83.17
69306;BME280;56427;51.580;4.656;2023-04-30T11:52:02;102182.44;;;19.05;79.07
69306;BME280;56427;51.580;4.656;2023-04-30T11:54:31;102176.75;;;18.82;78.39
69306;BME280;56427;51.580;4.656;2023-04-30T11:56:57;102171.03;;;18.69;80.77
69306;BME280;56427;51.580;4.656;2023-04-30T11:59:28;102172.13;;;18.48;80.83
69306;BME280;56427;51.580;4.656;2023-04-30T12:01:53;102164.19;;;18.02;83.06
69306;BME280;56427;51.580;4.656;2023-04-30T12:04:19;102164.50;;;17.99;84.58
69306;BME280;56427;51.580;4.656;2023-04-30T12:06:44;102162.47;;;18.21;78.39
69306;BME280;56427;51.580;4.656;2023-04-30T12:09:10;102157.19;;;18.21;80.43
69306;BME280;56427;51.580;4.656;2023-04-30T12:11:37;102162.03;;;18.26;77.33
69306;BME280;56427;51.580;4.656;2023-04-30T12:14:05;102167.56;;;18.50;78.61
69306;BME280;56427;51.580;4.656;2023-04-30T12:16:43;102163.63;;;17.42;83.96
69306;BME280;56427;51.580;4.656;2023-04-30T12:19:19;102153.78;;;17.63;83.55
69306;BME280;56427;51.580;4.656;2023-04-30T12:21:46;102156.19;;;17.94;82.67
69306;BME280;56427;51.580;4.656;2023-04-30T12:24:13;102144.25;;;17.53;82.65
69306;BME280;56427;51.580;4.656;2023-04-30T12:26:40;102142.72;;;18.07;80.58
69306;BME280;56427;51.580;4.656;2023-04-30T12:29:18;102139.81;;;18.10;82.63
69306;BME280;56427;51.580;4.656;2023-04-30T12:31:47;102144.56;;;17.97;80.05
69306;BME280;56427;51.580;4.656;2023-04-30T12:34:16;102144.13;;;17.54;79.76
69306;BME280;56427;51.580;4.656;2023-04-30T12:36:42;102143.41;;;17.72;81.38
69306;BME280;56427;51.580;4.656;2023-04-30T12:39:09;102137.09;;;18.75;76.17
69306;BME280;56427;51.580;4.656;2023-04-30T12:41:38;102130.63;;;18.88;74.29
69306;BME280;56427;51.580;4.656;2023-04-30T12:46:42;102129.97;;;18.40;71.28
69306;BME280;56427;51.580;4.656;2023-04-30T12:49:08;102125.91;;;18.28;69.25
69306;BME280;56427;51.580;4.656;2023-04-30T12:51:35;102122.84;;;18.32;72.10
69306;BME280;56427;51.580;4.656;2023-04-30T12:54:01;102122.94;;;19.12;71.17
69306;BME280;56427;51.580;4.656;2023-04-30T12:56:26;102130.38;;;18.63;76.74
69306;BME280;56427;51.580;4.656;2023-04-30T12:58:52;102124.13;;;18.46;79.21
69306;BME280;56427;51.580;4.656;2023-04-30T13:01:19;102118.84;;;18.00;76.81
69306;BME280;56427;51.580;4.656;2023-04-30T13:03:45;102114.88;;;17.87;76.62
69306;BME280;56427;51.580;4.656;2023-04-30T13:06:10;102114.91;;;18.60;76.20
69306;BME280;56427;51.580;4.656;2023-04-30T13:08:36;102105.53;;;18.75;75.04
69306;BME280;56427;51.580;4.656;2023-04-30T13:11:01;102103.38;;;19.33;70.98
69306;BME280;56427;51.580;4.656;2023-04-30T13:13:28;102095.56;;;19.49;66.07
69306;BME280;56427;51.580;4.656;2023-04-30T13:15:53;102096.34;;;19.16;68.72
69306;BME280;56427;51.580;4.656;2023-04-30T13:18:19;102095.53;;;18.97;70.75
69306;BME280;56427;51.580;4.656;2023-04-30T13:20:45;102095.53;;;17.88;77.12